createdAt,value
2018-05-23T00:00:46.239Z,48.38
2018-05-23T00:01:49.566Z,49.15
2018-05-23T00:02:52.878Z,50.42
2018-05-23T00:03:56.202Z,49.92
2018-05-23T00:04:59.547Z,48.78
2018-05-23T00:06:02.864Z,48.50
2018-05-23T00:07:06.216Z,49.58
2018-05-23T00:08:09.558Z,50.28
2018-05-23T00:09:12.876Z,48.80
2018-05-23T00:10:16.227Z,49.30
2018-05-23T00:11:19.540Z,50.28
2018-05-23T00:12:22.862Z,48.92
2018-05-23T00:13:26.180Z,49.85
2018-05-23T00:14:29.506Z,49.50
2018-05-23T00:15:32.874Z,50.97
2018-05-23T00:16:36.202Z,50.15
2018-05-23T00:17:39.827Z,51.33
2018-05-23T00:18:43.153Z,49.92
2018-05-23T00:19:46.475Z,51.28
2018-05-23T00:20:49.810Z,52.75
2018-05-23T00:21:53.152Z,52.53
2018-05-23T00:22:56.785Z,52.42
2018-05-23T00:24:00.091Z,51.85
2018-05-23T00:25:03.484Z,53.05
2018-05-23T00:26:06.835Z,53.83
2018-05-23T00:27:10.163Z,53.45
2018-05-23T00:28:13.493Z,51.88
2018-05-23T00:29:16.828Z,51.60
2018-05-23T00:30:20.139Z,51.63
2018-05-23T00:31:23.481Z,53.83
2018-05-23T00:32:26.801Z,53.20
2018-05-23T00:33:30.134Z,52.92
2018-05-23T00:34:33.464Z,54.15
2018-05-23T00:35:36.787Z,54.03
2018-05-23T00:36:40.137Z,54.53
2018-05-23T00:37:43.460Z,56.85
2018-05-23T00:38:46.797Z,53.30
2018-05-23T00:39:50.151Z,52.33
2018-05-23T00:40:53.466Z,56.45
2018-05-23T00:41:56.805Z,55.45
2018-05-23T00:43:00.134Z,52.47
2018-05-23T00:44:03.442Z,55.63
2018-05-23T00:45:06.766Z,54.33
2018-05-23T00:46:10.121Z,55.55
2018-05-23T00:47:13.463Z,58.10
2018-05-23T00:48:16.780Z,56.92
2018-05-23T00:49:20.159Z,56.50
2018-05-23T00:50:23.516Z,56.03
2018-05-23T00:51:26.802Z,55.95
2018-05-23T00:52:30.142Z,54.25
2018-05-23T00:53:33.471Z,57.97
2018-05-23T00:54:36.798Z,55.10
2018-05-23T00:55:40.127Z,57.17
2018-05-23T00:56:43.437Z,56.30
2018-05-23T00:57:46.795Z,54.75
2018-05-23T00:58:50.489Z,55.35
2018-05-23T00:59:53.787Z,56.70
2018-05-23T01:00:57.113Z,58.08
2018-05-23T01:02:00.452Z,56.10
2018-05-23T01:03:03.784Z,56.63
2018-05-23T01:04:07.114Z,59.15
2018-05-23T01:05:10.427Z,59.78
2018-05-23T01:06:13.746Z,56.78
2018-05-23T01:07:17.065Z,59.60
2018-05-23T01:08:20.507Z,57.90
2018-05-23T01:09:23.798Z,59.22
2018-05-23T01:10:27.129Z,58.03
2018-05-23T01:11:30.446Z,59.58
2018-05-23T01:12:33.775Z,58.87
2018-05-23T01:13:37.106Z,60.12
2018-05-23T01:14:40.471Z,59.33
2018-05-23T01:15:43.813Z,60.78
2018-05-23T01:16:47.132Z,60.15
2018-05-23T01:17:50.469Z,60.90
2018-05-23T01:18:53.815Z,58.63
2018-05-23T01:19:57.132Z,60.67
2018-05-23T01:21:00.455Z,56.35
2018-05-23T01:22:03.808Z,56.28
2018-05-23T01:23:07.461Z,59.60
2018-05-23T01:24:10.805Z,60.30
2018-05-23T01:25:14.127Z,57.42
2018-05-23T01:26:17.453Z,61.55
2018-05-23T01:27:20.782Z,59.80
2018-05-23T01:28:24.118Z,60.05
2018-05-23T01:29:27.459Z,58.70
2018-05-23T01:30:31.535Z,59.17
2018-05-23T01:31:34.855Z,59.30
2018-05-23T01:32:38.331Z,60.53
2018-05-23T01:33:41.666Z,58.90
2018-05-23T01:34:45.002Z,57.28
2018-05-23T01:35:48.340Z,59.25
2018-05-23T01:36:51.658Z,59.10
2018-05-23T01:37:54.980Z,59.78
2018-05-23T01:38:58.597Z,56.90
2018-05-23T01:40:01.927Z,61.50
2018-05-23T01:41:05.266Z,59.35
2018-05-23T01:42:08.599Z,58.03
2018-05-23T01:43:11.912Z,57.17
2018-05-23T01:44:15.243Z,57.85
2018-05-23T01:45:18.581Z,58.50
2018-05-23T01:46:21.907Z,56.97
2018-05-23T01:47:25.209Z,58.85
2018-05-23T01:48:40.233Z,59.50
2018-05-23T01:49:43.543Z,58.20
2018-05-23T01:50:46.890Z,59.65
2018-05-23T01:51:50.217Z,61.60
2018-05-23T01:52:53.534Z,57.53
2018-05-23T01:53:56.900Z,57.78
2018-05-23T01:55:00.255Z,59.55
2018-05-23T01:56:03.619Z,57.75
2018-05-23T01:57:06.928Z,60.53
2018-05-23T01:58:10.265Z,61.55
2018-05-23T01:59:13.600Z,61.72
2018-05-23T02:00:16.934Z,56.37
2018-05-23T02:01:20.294Z,60.72
2018-05-23T02:02:23.653Z,60.05
2018-05-23T02:03:26.987Z,58.65
2018-05-23T02:04:30.311Z,62.65
2018-05-23T02:05:33.634Z,58.15
2018-05-23T02:06:37.004Z,63.58
2018-05-23T02:07:40.342Z,58.20
2018-05-23T02:08:43.671Z,60.83
2018-05-23T02:09:46.991Z,61.67
2018-05-23T02:10:50.322Z,62.45
2018-05-23T02:11:53.662Z,60.63
2018-05-23T02:12:56.988Z,60.33
2018-05-23T02:14:00.379Z,64.00
2018-05-23T02:15:03.701Z,63.30
2018-05-23T02:16:07.033Z,61.72
2018-05-23T02:17:10.368Z,63.00
2018-05-23T02:18:13.696Z,65.55
2018-05-23T02:19:17.022Z,63.15
2018-05-23T02:20:20.361Z,64.07
2018-05-23T02:21:23.693Z,64.45
2018-05-23T02:22:27.059Z,57.80
2018-05-23T02:23:30.556Z,62.70
2018-05-23T02:24:33.883Z,62.25
2018-05-23T02:25:37.226Z,65.68
2018-05-23T02:26:40.547Z,65.80
2018-05-23T02:27:43.920Z,68.37
2018-05-23T02:28:47.231Z,62.85
2018-05-23T02:29:50.550Z,66.87
2018-05-23T02:30:53.873Z,66.05
2018-05-23T02:31:57.205Z,65.53
2018-05-23T02:33:00.558Z,63.15
2018-05-23T02:34:03.935Z,67.68
2018-05-23T02:35:07.247Z,63.58
2018-05-23T02:36:10.599Z,64.78
2018-05-23T02:37:13.918Z,64.47
2018-05-23T02:38:17.265Z,64.62
2018-05-23T02:39:20.591Z,60.83
2018-05-23T02:40:23.916Z,63.22
2018-05-23T02:41:27.249Z,61.17
2018-05-23T02:42:30.563Z,63.42
2018-05-23T02:43:33.916Z,60.80
2018-05-23T02:44:37.236Z,63.90
2018-05-23T02:45:40.592Z,64.47
2018-05-23T02:46:43.939Z,62.55
2018-05-23T02:47:47.258Z,61.97
2018-05-23T02:48:50.614Z,62.80
2018-05-23T02:49:53.943Z,64.22
2018-05-23T02:50:57.267Z,61.65
2018-05-23T02:52:00.601Z,63.45
2018-05-23T02:53:03.939Z,65.65
2018-05-23T02:54:07.295Z,61.78
2018-05-23T02:55:10.630Z,62.60
2018-05-23T02:56:13.960Z,65.68
2018-05-23T02:57:17.279Z,60.53
2018-05-23T02:58:20.607Z,63.60
2018-05-23T02:59:23.971Z,61.25
2018-05-23T03:00:27.307Z,64.40
2018-05-23T03:01:30.648Z,66.35
2018-05-23T03:02:33.967Z,63.33
2018-05-23T03:03:37.320Z,65.20
2018-05-23T03:04:40.651Z,63.47
2018-05-23T03:05:43.978Z,62.90
2018-05-23T03:06:47.317Z,60.20
2018-05-23T03:07:50.641Z,60.00
2018-05-23T03:08:53.954Z,60.05
2018-05-23T03:09:57.330Z,63.33
2018-05-23T03:11:00.655Z,63.00
2018-05-23T03:12:03.997Z,64.60
2018-05-23T03:13:07.296Z,64.72
2018-05-23T03:14:10.651Z,63.03
2018-05-23T03:15:13.986Z,65.22
2018-05-23T03:16:17.309Z,64.70
2018-05-23T03:17:20.635Z,64.85
2018-05-23T03:18:23.963Z,66.80
2018-05-23T03:19:27.283Z,61.90
2018-05-23T03:20:30.671Z,64.22
2018-05-23T03:21:34.047Z,63.28
2018-05-23T03:22:37.390Z,63.72
2018-05-23T03:23:41.118Z,67.25
2018-05-23T03:24:44.538Z,62.40
2018-05-23T03:25:47.895Z,61.42
2018-05-23T03:26:51.231Z,65.93
2018-05-23T03:27:54.571Z,63.20
2018-05-23T03:28:57.910Z,61.35
2018-05-23T03:30:01.244Z,62.62
2018-05-23T03:31:04.588Z,63.60
2018-05-23T03:32:07.974Z,61.10
2018-05-23T03:33:11.308Z,59.95
2018-05-23T03:34:14.634Z,62.47
2018-05-23T03:35:17.976Z,61.08
2018-05-23T03:36:21.307Z,62.62
2018-05-23T03:37:24.645Z,64.43
2018-05-23T03:38:28.431Z,64.15
2018-05-23T03:39:31.769Z,64.20
2018-05-23T03:40:35.106Z,62.72
2018-05-23T03:41:38.541Z,62.50
2018-05-23T03:42:41.809Z,60.72
2018-05-23T03:43:45.133Z,62.85
2018-05-23T03:44:48.472Z,63.85
2018-05-23T03:45:51.807Z,62.95
2018-05-23T03:46:55.151Z,60.90
2018-05-23T03:47:58.499Z,62.62
2018-05-23T03:49:01.828Z,62.22
2018-05-23T03:50:05.152Z,66.20
2018-05-23T03:51:08.492Z,62.67
2018-05-23T03:52:11.835Z,61.55
2018-05-23T03:53:15.162Z,68.82
2018-05-23T03:54:18.563Z,64.78
2018-05-23T03:55:21.978Z,65.22
2018-05-23T03:56:25.240Z,63.22
2018-05-23T03:57:28.589Z,61.80
2018-05-23T03:58:31.904Z,63.42
2018-05-23T03:59:46.965Z,64.00
2018-05-23T04:01:02.176Z,63.17
2018-05-23T04:02:17.382Z,61.15
2018-05-23T04:03:32.388Z,61.92
2018-05-23T04:04:47.553Z,61.78
2018-05-23T04:06:02.754Z,62.97
2018-05-23T04:07:17.859Z,63.05
2018-05-23T04:08:21.196Z,63.87
2018-05-23T04:09:24.542Z,62.03
2018-05-23T04:10:27.868Z,61.03
2018-05-23T04:11:31.195Z,63.78
2018-05-23T04:12:34.520Z,65.32
2018-05-23T04:13:37.840Z,63.65
2018-05-23T04:14:41.192Z,65.10
2018-05-23T04:15:44.643Z,63.13
2018-05-23T04:16:47.951Z,65.37
2018-05-23T04:17:51.278Z,63.15
2018-05-23T04:18:54.691Z,64.12
2018-05-23T04:19:58.148Z,65.43
2018-05-23T04:21:01.578Z,66.12
2018-05-23T04:22:04.894Z,64.55
2018-05-23T04:23:08.265Z,65.22
2018-05-23T04:24:11.791Z,63.63
2018-05-23T04:25:15.147Z,66.72
2018-05-23T04:26:18.484Z,66.35
2018-05-23T04:27:21.799Z,64.15
2018-05-23T04:28:25.167Z,63.83
2018-05-23T04:29:28.493Z,62.58
2018-05-23T04:30:31.834Z,61.08
2018-05-23T04:31:35.377Z,64.18
2018-05-23T04:32:38.972Z,64.47
2018-05-23T04:33:42.288Z,63.80
2018-05-23T04:34:45.611Z,62.88
2018-05-23T04:35:48.959Z,62.92
2018-05-23T04:36:52.279Z,62.47
2018-05-23T04:37:55.625Z,62.00
2018-05-23T04:38:58.930Z,63.87
2018-05-23T04:40:02.347Z,63.28
2018-05-23T04:41:05.802Z,61.25
2018-05-23T04:42:09.139Z,63.67
2018-05-23T04:43:12.467Z,60.38
2018-05-23T04:44:15.776Z,61.28
2018-05-23T04:45:19.097Z,60.00
2018-05-23T04:46:22.442Z,60.88
2018-05-23T04:47:25.764Z,59.10
2018-05-23T04:48:29.076Z,59.65
2018-05-23T04:49:32.395Z,60.38
2018-05-23T04:50:35.759Z,62.88
2018-05-23T04:51:39.120Z,58.70
2018-05-23T04:52:42.439Z,59.58
2018-05-23T04:53:45.758Z,59.83
2018-05-23T04:54:49.077Z,58.35
2018-05-23T04:55:52.636Z,59.03
2018-05-23T04:56:55.956Z,57.85
2018-05-23T04:57:59.275Z,59.53
2018-05-23T04:59:02.622Z,56.28
2018-05-23T05:00:05.945Z,56.58
2018-05-23T05:01:09.267Z,57.30
2018-05-23T05:02:12.610Z,54.40
2018-05-23T05:03:15.944Z,58.70
2018-05-23T05:04:19.247Z,57.60
2018-05-23T05:05:22.563Z,56.65
2018-05-23T05:06:25.891Z,54.85
2018-05-23T05:07:29.229Z,56.10
2018-05-23T05:08:32.539Z,56.08
2018-05-23T05:09:35.868Z,54.05
2018-05-23T05:10:39.184Z,54.60
2018-05-23T05:11:42.515Z,55.78
2018-05-23T05:12:45.856Z,57.25
2018-05-23T05:13:49.407Z,54.47
2018-05-23T05:14:52.755Z,51.45
2018-05-23T05:15:56.079Z,51.75
2018-05-23T05:16:59.400Z,53.03
2018-05-23T05:18:02.749Z,52.15
2018-05-23T05:19:06.096Z,52.03
2018-05-23T05:20:09.427Z,53.47
2018-05-23T05:21:12.987Z,54.97
2018-05-23T05:22:16.313Z,52.75
2018-05-23T05:23:19.666Z,52.67
2018-05-23T05:24:23.176Z,51.85
2018-05-23T05:25:26.510Z,49.70
2018-05-23T05:26:29.846Z,51.08
2018-05-23T05:27:33.188Z,52.00
2018-05-23T05:28:36.596Z,50.92
2018-05-23T05:29:40.020Z,53.95
2018-05-23T05:30:43.333Z,47.53
2018-05-23T05:31:46.694Z,50.08
2018-05-23T05:32:50.014Z,49.90
2018-05-23T05:33:53.350Z,49.47
2018-05-23T05:34:56.680Z,51.40
2018-05-23T05:36:00.035Z,49.92
2018-05-23T05:37:03.354Z,50.92
2018-05-23T05:38:06.688Z,51.20
2018-05-23T05:39:10.022Z,50.15
2018-05-23T05:40:13.354Z,47.70
2018-05-23T05:41:16.693Z,48.40
2018-05-23T05:42:20.012Z,48.05
2018-05-23T05:43:23.339Z,46.80
2018-05-23T05:44:26.683Z,48.72
2018-05-23T05:45:30.008Z,46.60
2018-05-23T05:46:33.331Z,44.72
2018-05-23T05:47:36.659Z,45.45
2018-05-23T05:48:39.978Z,43.33
2018-05-23T05:49:43.318Z,44.70
2018-05-23T05:50:46.654Z,42.67
2018-05-23T05:51:49.970Z,40.85
2018-05-23T05:52:53.290Z,41.55
2018-05-23T05:53:56.608Z,43.10
2018-05-23T05:54:59.959Z,42.65
2018-05-23T05:56:03.286Z,41.70
2018-05-23T05:57:06.732Z,41.97
2018-05-23T05:58:10.047Z,40.33
2018-05-23T05:59:13.378Z,41.03
2018-05-23T06:00:16.727Z,41.33
2018-05-23T06:01:20.067Z,41.28
2018-05-23T06:02:23.427Z,42.70
2018-05-23T06:03:26.824Z,43.15
2018-05-23T06:04:30.131Z,39.97
2018-05-23T06:05:33.478Z,41.83
2018-05-23T06:06:36.779Z,39.92
2018-05-23T06:07:40.122Z,38.75
2018-05-23T06:08:43.503Z,37.40
2018-05-23T06:09:46.881Z,39.65
2018-05-23T06:10:50.254Z,37.63
2018-05-23T06:11:53.583Z,38.65
2018-05-23T06:12:56.923Z,37.83
2018-05-23T06:14:00.267Z,40.72
2018-05-23T06:15:03.558Z,41.03
2018-05-23T06:16:06.915Z,39.50
2018-05-23T06:17:10.253Z,39.60
2018-05-23T06:18:13.584Z,39.03
2018-05-23T06:19:16.906Z,37.30
2018-05-23T06:20:20.218Z,40.28
2018-05-23T06:21:23.588Z,37.13
2018-05-23T06:22:27.012Z,37.97
2018-05-23T06:23:30.279Z,37.58
2018-05-23T06:24:33.686Z,36.72
2018-05-23T06:25:36.994Z,37.75
2018-05-23T06:26:40.471Z,37.25
2018-05-23T06:27:43.795Z,40.10
2018-05-23T06:28:47.106Z,39.63
2018-05-23T06:29:50.430Z,36.75
2018-05-23T06:30:53.755Z,36.65
2018-05-23T06:31:57.125Z,37.22
2018-05-23T06:33:00.464Z,37.78
2018-05-23T06:34:04.282Z,35.50
2018-05-23T06:35:07.591Z,36.42
2018-05-23T06:36:10.919Z,35.83
2018-05-23T06:37:14.436Z,38.75
2018-05-23T06:38:17.796Z,37.83
2018-05-23T06:39:21.146Z,33.40
2018-05-23T06:40:24.467Z,34.72
2018-05-23T06:41:27.845Z,33.58
2018-05-23T06:42:31.187Z,33.88
2018-05-23T06:43:34.571Z,34.22
2018-05-23T06:44:37.839Z,34.17
2018-05-23T06:45:41.269Z,34.75
2018-05-23T06:46:44.601Z,33.30
2018-05-23T06:47:47.924Z,34.63
2018-05-23T06:48:51.262Z,33.28
2018-05-23T06:49:54.594Z,32.38
2018-05-23T06:50:57.907Z,32.63
2018-05-23T06:52:01.302Z,35.25
2018-05-23T06:53:04.645Z,33.67
2018-05-23T06:54:07.954Z,31.77
2018-05-23T06:55:11.272Z,33.90
2018-05-23T06:56:14.739Z,32.78
2018-05-23T06:57:18.047Z,31.40
2018-05-23T06:58:21.400Z,34.13
2018-05-23T06:59:24.723Z,32.13
2018-05-23T07:00:28.040Z,30.90
2018-05-23T07:01:31.348Z,30.05
2018-05-23T07:02:34.666Z,28.20
2018-05-23T07:03:38.041Z,31.37
2018-05-23T07:04:41.369Z,30.05
2018-05-23T07:05:44.722Z,29.70
2018-05-23T07:06:48.032Z,30.05
2018-05-23T07:07:51.354Z,30.37
2018-05-23T07:08:54.709Z,31.08
2018-05-23T07:09:58.026Z,29.75
2018-05-23T07:11:01.439Z,30.08
2018-05-23T07:12:04.720Z,29.00
2018-05-23T07:13:08.044Z,31.02
2018-05-23T07:14:11.383Z,29.20
2018-05-23T07:15:14.765Z,30.15
2018-05-23T07:16:18.076Z,32.42
2018-05-23T07:17:21.415Z,29.73
2018-05-23T07:18:24.720Z,28.85
2018-05-23T07:19:28.051Z,30.42
2018-05-23T07:20:31.381Z,29.05
2018-05-23T07:21:34.714Z,28.67
2018-05-23T07:22:38.047Z,29.60
2018-05-23T07:23:41.405Z,29.63
2018-05-23T07:24:44.893Z,27.75
2018-05-23T07:25:48.249Z,29.15
2018-05-23T07:26:51.543Z,27.87
2018-05-23T07:27:55.201Z,27.60
2018-05-23T07:28:58.523Z,28.42
2018-05-23T07:30:02.059Z,28.45
2018-05-23T07:31:05.374Z,29.15
2018-05-23T07:32:08.698Z,27.45
2018-05-23T07:33:12.035Z,28.12
2018-05-23T07:34:15.372Z,27.42
2018-05-23T07:35:18.754Z,26.67
2018-05-23T07:36:22.108Z,27.90
2018-05-23T07:37:25.432Z,26.55
2018-05-23T07:38:28.837Z,26.17
2018-05-23T07:39:32.087Z,28.60
2018-05-23T07:40:35.433Z,26.60
2018-05-23T07:41:38.757Z,26.55
2018-05-23T07:42:42.073Z,27.00
2018-05-23T07:43:45.401Z,26.62
2018-05-23T07:44:48.741Z,25.92
2018-05-23T07:45:52.168Z,25.80
2018-05-23T07:46:55.408Z,28.10
2018-05-23T07:47:58.742Z,26.42
2018-05-23T07:49:02.110Z,26.40
2018-05-23T07:50:06.508Z,26.17
2018-05-23T07:51:09.849Z,26.30
2018-05-23T07:52:13.159Z,25.50
2018-05-23T07:53:16.502Z,24.30
2018-05-23T07:54:19.999Z,25.95
2018-05-23T07:55:23.401Z,24.63
2018-05-23T07:56:26.750Z,25.95
2018-05-23T07:57:30.076Z,25.12
2018-05-23T07:58:33.409Z,24.45
2018-05-23T07:59:36.736Z,24.08
2018-05-23T08:00:40.151Z,23.95
2018-05-23T08:01:43.435Z,24.20
2018-05-23T08:02:46.770Z,22.17
2018-05-23T08:03:50.120Z,21.90
2018-05-23T08:04:53.489Z,22.17
2018-05-23T08:05:57.111Z,20.50
2018-05-23T08:07:00.460Z,20.98
2018-05-23T08:08:03.789Z,20.58
2018-05-23T08:09:07.111Z,19.95
2018-05-23T08:10:10.444Z,18.95
2018-05-23T08:11:13.833Z,18.50
2018-05-23T08:12:17.205Z,19.50
2018-05-23T08:13:20.519Z,18.48
2018-05-23T08:14:23.852Z,19.37
2018-05-23T08:15:27.205Z,18.90
2018-05-23T08:16:30.531Z,18.45
2018-05-23T08:17:33.870Z,19.80
2018-05-23T08:18:37.221Z,21.90
2018-05-23T08:19:40.530Z,21.80
2018-05-23T08:20:43.895Z,22.50
2018-05-23T08:21:47.232Z,20.98
2018-05-23T08:22:50.572Z,22.83
2018-05-23T08:23:53.894Z,23.15
2018-05-23T08:24:57.455Z,22.92
2018-05-23T08:26:00.827Z,25.02
2018-05-23T08:27:04.221Z,24.42
2018-05-23T08:28:07.573Z,23.90
2018-05-23T08:29:10.908Z,25.08
2018-05-23T08:30:14.223Z,25.90
2018-05-23T08:31:17.555Z,23.73
2018-05-23T08:32:20.927Z,24.55
2018-05-23T08:33:24.288Z,25.95
2018-05-23T08:34:27.836Z,23.58
2018-05-23T08:35:31.224Z,25.33
2018-05-23T08:36:34.600Z,24.95
2018-05-23T08:37:37.917Z,24.42
2018-05-23T08:38:41.273Z,25.10
2018-05-23T08:39:44.605Z,23.92
2018-05-23T08:40:47.983Z,24.37
2018-05-23T08:41:51.314Z,24.80
2018-05-23T08:42:54.674Z,25.70
2018-05-23T08:43:58.039Z,24.85
2018-05-23T08:45:01.373Z,25.30
2018-05-23T08:46:04.743Z,23.45
2018-05-23T08:47:08.039Z,23.77
2018-05-23T08:48:11.366Z,23.42
2018-05-23T08:49:14.704Z,25.17
2018-05-23T08:50:18.029Z,24.90
2018-05-23T08:51:21.371Z,25.05
2018-05-23T08:52:24.715Z,24.33
2018-05-23T08:53:28.087Z,23.30
2018-05-23T08:54:31.428Z,23.70
2018-05-23T08:55:34.742Z,24.77
2018-05-23T08:56:38.065Z,25.45
2018-05-23T08:57:41.390Z,24.15
2018-05-23T08:58:44.723Z,24.73
2018-05-23T08:59:48.074Z,26.42
2018-05-23T09:00:51.398Z,25.70
2018-05-23T09:01:54.739Z,26.80
2018-05-23T09:02:58.063Z,26.97
2018-05-23T09:04:01.397Z,28.12
2018-05-23T09:05:04.832Z,27.33
2018-05-23T09:06:08.255Z,26.08
2018-05-23T09:07:11.569Z,28.07
2018-05-23T09:08:14.882Z,26.13
2018-05-23T09:09:18.232Z,25.57
2018-05-23T09:10:21.575Z,26.53
2018-05-23T09:11:24.907Z,25.77
2018-05-23T09:12:28.355Z,25.80
2018-05-23T09:13:31.597Z,26.67
2018-05-23T09:14:34.999Z,27.70
2018-05-23T09:15:38.341Z,26.10
2018-05-23T09:16:41.653Z,25.93
2018-05-23T09:17:44.987Z,25.02
2018-05-23T09:18:48.308Z,23.83
2018-05-23T09:19:51.630Z,23.60
2018-05-23T09:20:54.998Z,24.23
2018-05-23T09:21:58.307Z,26.03
2018-05-23T09:23:01.638Z,26.47
2018-05-23T09:24:04.966Z,27.47
2018-05-23T09:25:08.443Z,26.30
2018-05-23T09:26:11.787Z,25.50
2018-05-23T09:27:15.108Z,24.70
2018-05-23T09:28:18.429Z,26.20
2018-05-23T09:29:21.761Z,25.60
2018-05-23T09:30:25.110Z,25.63
2018-05-23T09:31:28.447Z,25.00
2018-05-23T09:32:31.802Z,26.85
2018-05-23T09:33:35.118Z,26.97
2018-05-23T09:34:38.427Z,28.17
2018-05-23T09:35:41.763Z,28.00
2018-05-23T09:36:45.116Z,28.10
2018-05-23T09:37:48.426Z,27.20
2018-05-23T09:38:51.743Z,28.90
2018-05-23T09:39:55.050Z,27.43
2018-05-23T09:40:58.382Z,27.10
2018-05-23T09:42:01.731Z,26.70
2018-05-23T09:43:05.072Z,24.77
2018-05-23T09:44:08.413Z,26.53
2018-05-23T09:45:11.802Z,26.37
2018-05-23T09:46:15.053Z,27.60
2018-05-23T09:47:18.435Z,25.73
2018-05-23T09:48:21.751Z,21.93
2018-05-23T09:49:25.075Z,24.73
2018-05-23T09:50:28.410Z,23.60
2018-05-23T09:51:31.761Z,21.20
2018-05-23T09:52:35.330Z,16.63
2018-05-23T09:53:38.699Z,18.03
2018-05-23T09:54:42.018Z,16.10
2018-05-23T09:55:45.337Z,19.33
2018-05-23T09:56:48.660Z,13.47
2018-05-23T09:57:52.001Z,11.03
2018-05-23T09:58:55.336Z,10.27
2018-05-23T09:59:58.638Z,8.82
2018-05-23T10:01:01.992Z,9.70
2018-05-23T10:02:05.313Z,9.10
2018-05-23T10:03:08.658Z,9.10
2018-05-23T10:04:11.967Z,9.13
2018-05-23T10:05:15.271Z,10.50
2018-05-23T10:06:18.603Z,9.40
2018-05-23T10:07:21.899Z,9.30
2018-05-23T10:08:25.242Z,9.30
2018-05-23T10:09:28.564Z,9.20
2018-05-23T10:10:31.877Z,7.70
2018-05-23T10:11:35.218Z,10.23
2018-05-23T10:12:38.535Z,10.90
2018-05-23T10:13:41.886Z,9.60
2018-05-23T10:14:45.191Z,8.90
2018-05-23T10:15:48.506Z,9.32
2018-05-23T10:16:51.827Z,9.57
2018-05-23T10:17:55.149Z,9.45
2018-05-23T10:18:58.492Z,9.50
2018-05-23T10:20:01.807Z,9.30
2018-05-23T10:21:05.146Z,8.83
2018-05-23T10:22:08.462Z,9.30
2018-05-23T10:23:11.771Z,9.60
2018-05-23T10:24:15.122Z,8.98
2018-05-23T10:25:18.661Z,10.02
2018-05-23T10:26:22.055Z,9.47
2018-05-23T10:27:25.334Z,8.90
2018-05-23T10:28:28.662Z,7.80
2018-05-23T10:29:32.022Z,8.77
2018-05-23T10:30:35.332Z,8.57
2018-05-23T10:31:38.674Z,8.83
2018-05-23T10:32:42.017Z,8.97
2018-05-23T10:33:45.594Z,8.93
2018-05-23T10:34:49.126Z,7.97
2018-05-23T10:35:52.523Z,8.10
2018-05-23T10:36:55.867Z,9.00
2018-05-23T10:37:59.178Z,9.17
2018-05-23T10:39:02.536Z,8.70
2018-05-23T10:40:06.784Z,8.93
2018-05-23T10:41:10.108Z,9.03
2018-05-23T10:42:13.605Z,8.70
2018-05-23T10:43:16.929Z,8.15
2018-05-23T10:44:20.243Z,8.30
2018-05-23T10:45:23.987Z,9.17
2018-05-23T10:46:27.279Z,9.80
2018-05-23T10:47:30.595Z,9.67
2018-05-23T10:48:33.963Z,10.37
2018-05-23T10:49:37.334Z,9.87
2018-05-23T10:50:40.677Z,8.83
2018-05-23T10:51:44.048Z,9.03
2018-05-23T10:52:47.406Z,9.90
2018-05-23T10:53:50.828Z,8.57
2018-05-23T10:54:54.129Z,8.23
2018-05-23T10:55:57.471Z,8.30
2018-05-23T10:57:00.871Z,8.20
2018-05-23T10:58:04.102Z,8.03
2018-05-23T10:59:07.411Z,7.30
2018-05-23T11:00:10.769Z,6.63
2018-05-23T11:01:14.059Z,6.83
2018-05-23T11:02:17.372Z,6.20
2018-05-23T11:03:20.678Z,6.27
2018-05-23T11:04:24.022Z,5.97
2018-05-23T11:05:27.317Z,5.20
2018-05-23T11:06:30.663Z,5.20
2018-05-23T11:07:33.960Z,5.10
2018-05-23T11:08:37.277Z,5.73
2018-05-23T11:09:40.612Z,5.20
2018-05-23T11:10:43.933Z,4.57
2018-05-23T11:11:47.296Z,4.40
2018-05-23T11:12:50.605Z,3.73
2018-05-23T11:13:53.929Z,3.60
2018-05-23T11:14:57.280Z,3.63
2018-05-23T11:16:00.594Z,4.80
2018-05-23T11:17:03.997Z,4.20
2018-05-23T11:18:07.247Z,4.13
2018-05-23T11:19:10.574Z,3.83
2018-05-23T11:20:13.860Z,4.80
2018-05-23T11:21:17.172Z,4.63
2018-05-23T11:22:20.515Z,3.90
2018-05-23T11:24:33.331Z,3.73
2018-05-23T11:25:36.929Z,3.80
2018-05-23T11:26:40.227Z,4.17
2018-05-23T11:27:43.556Z,3.57
2018-05-23T11:28:46.892Z,3.20
2018-05-23T11:29:50.214Z,3.87
2018-05-23T11:30:53.531Z,3.73
2018-05-23T11:31:56.845Z,3.67
2018-05-23T11:33:00.187Z,3.80
2018-05-23T11:34:03.499Z,3.73
2018-05-23T11:35:06.818Z,3.50
2018-05-23T11:36:10.121Z,3.77
2018-05-23T11:37:13.438Z,3.10
2018-05-23T11:38:16.756Z,3.67
2018-05-23T11:39:20.055Z,3.80
2018-05-23T11:40:23.366Z,3.20
2018-05-23T11:41:26.697Z,3.90
2018-05-23T11:42:30.006Z,3.40
2018-05-23T11:43:33.338Z,3.53
2018-05-23T11:44:36.692Z,3.93
2018-05-23T11:45:40.003Z,3.50
2018-05-23T11:46:43.447Z,4.60
2018-05-23T11:47:46.630Z,4.17
2018-05-23T11:48:49.979Z,3.70
2018-05-23T11:49:53.346Z,3.70
2018-05-23T11:50:56.647Z,3.90
2018-05-23T11:51:59.944Z,4.40
2018-05-23T11:53:03.263Z,4.80
2018-05-23T11:54:06.592Z,4.20
2018-05-23T11:55:09.902Z,5.10
2018-05-23T11:56:13.298Z,4.73
2018-05-23T11:57:16.614Z,4.30
2018-05-23T11:58:19.930Z,4.90
2018-05-23T11:59:23.250Z,4.87
2018-05-23T12:00:26.578Z,4.37
2018-05-23T12:01:29.924Z,4.62
2018-05-23T12:02:33.237Z,4.40
2018-05-23T12:03:36.551Z,5.17
2018-05-23T12:04:39.883Z,4.93
2018-05-23T12:05:43.207Z,4.62
2018-05-23T12:06:46.523Z,5.28
2018-05-23T12:07:49.853Z,5.30
2018-05-23T12:08:53.164Z,5.65
2018-05-23T12:09:56.499Z,6.82
2018-05-23T12:10:59.811Z,5.57
2018-05-23T12:12:03.136Z,5.75
2018-05-23T12:13:06.466Z,6.05
2018-05-23T12:14:09.809Z,6.00
2018-05-23T12:15:13.149Z,6.70
2018-05-23T12:16:16.460Z,5.60
2018-05-23T12:17:19.771Z,6.32
2018-05-23T12:18:23.157Z,5.65
2018-05-23T12:19:26.460Z,6.05
2018-05-23T12:20:29.816Z,5.57
2018-05-23T12:21:33.133Z,5.45
2018-05-23T12:22:36.448Z,6.12
2018-05-23T12:23:39.765Z,5.50
2018-05-23T12:24:43.076Z,5.72
2018-05-23T12:25:46.515Z,5.25
2018-05-23T12:26:49.811Z,5.75
2018-05-23T12:27:53.139Z,6.40
2018-05-23T12:28:56.472Z,6.15
2018-05-23T12:29:59.806Z,6.30
2018-05-23T12:31:03.150Z,5.50
2018-05-23T12:32:06.482Z,5.28
2018-05-23T12:33:09.800Z,6.05
2018-05-23T12:34:13.106Z,5.72
2018-05-23T12:35:16.408Z,5.93
2018-05-23T12:36:19.752Z,6.05
2018-05-23T12:37:23.068Z,7.20
2018-05-23T12:38:26.392Z,7.12
2018-05-23T12:39:30.099Z,6.25
2018-05-23T12:40:33.408Z,6.70
2018-05-23T12:41:36.773Z,6.60
2018-05-23T12:42:40.088Z,6.50
2018-05-23T12:43:43.406Z,7.35
2018-05-23T12:44:46.720Z,6.65
2018-05-23T12:45:50.041Z,7.10
2018-05-23T12:46:53.376Z,6.30
2018-05-23T12:47:56.686Z,6.12
2018-05-23T12:49:00.044Z,6.90
2018-05-23T12:50:03.357Z,7.10
2018-05-23T12:51:06.675Z,6.70
2018-05-23T12:52:10.035Z,6.60
2018-05-23T12:53:13.354Z,6.50
2018-05-23T12:54:16.673Z,6.60
2018-05-23T12:55:19.999Z,6.17
2018-05-23T12:56:23.317Z,6.17
2018-05-23T12:57:26.664Z,6.55
2018-05-23T12:58:29.963Z,6.17
2018-05-23T12:59:33.269Z,6.10
2018-05-23T13:00:36.566Z,6.40
2018-05-23T13:01:39.889Z,6.18
2018-05-23T13:02:43.215Z,8.10
2018-05-23T13:03:46.524Z,6.25
2018-05-23T13:04:49.831Z,5.90
2018-05-23T13:05:53.154Z,6.00
2018-05-23T13:06:56.483Z,6.10
2018-05-23T13:07:59.824Z,5.57
2018-05-23T13:09:03.131Z,5.40
2018-05-23T13:10:06.438Z,5.80
2018-05-23T13:11:09.758Z,6.10
2018-05-23T13:12:13.089Z,5.90
2018-05-23T13:13:16.447Z,6.20
2018-05-23T13:14:19.747Z,6.28
2018-05-23T13:15:23.087Z,6.87
2018-05-23T13:16:26.429Z,6.00
2018-05-23T13:17:29.736Z,6.82
2018-05-23T13:18:33.086Z,7.60
2018-05-23T13:19:36.412Z,5.97
2018-05-23T13:20:39.727Z,6.33
2018-05-23T13:21:43.114Z,6.80
2018-05-23T13:22:46.447Z,6.50
2018-05-23T13:23:49.845Z,7.65
2018-05-23T13:24:53.146Z,6.40
2018-05-23T13:25:56.616Z,7.43
2018-05-23T13:26:59.918Z,6.72
2018-05-23T13:28:03.258Z,6.90
2018-05-23T13:29:06.608Z,7.03
2018-05-23T13:30:09.919Z,6.43
2018-05-23T13:31:13.268Z,6.30
2018-05-23T13:32:16.606Z,6.43
2018-05-23T13:33:19.906Z,6.12
2018-05-23T13:34:23.247Z,6.65
2018-05-23T13:35:26.572Z,6.40
2018-05-23T13:36:29.907Z,6.25
2018-05-23T13:37:33.230Z,6.70
2018-05-23T13:38:36.529Z,6.10
2018-05-23T13:39:39.967Z,5.95
2018-05-23T13:40:43.283Z,5.73
2018-05-23T13:41:46.623Z,7.45
2018-05-23T13:42:49.936Z,6.07
2018-05-23T13:43:53.286Z,6.20
2018-05-23T13:44:56.608Z,5.97
2018-05-23T13:45:59.933Z,6.43